sensor_id;sensor_type;location;lat;lon;timestamp;pressure;altitude;pressure_sealevel;temperature;humidity
18985;BME280;9626;52.552;13.436;2023-07-13T00:00:36;100664.13;;;20.49;79.23
18985;BME280;9626;52.552;13.436;2023-07-13T00:03:03;100659.41;;;20.38;82.07
18985;BME280;9626;52.552;13.436;2023-07-13T00:05:30;100657.59;;;20.38;82.09
18985;BME280;9626;52.552;13.436;2023-07-13T00:07:56;100660.19;;;20.40;79.98
18985;BME280;9626;52.552;13.436;2023-07-13T00:10:22;100655.97;;;20.36;81.03
18985;BME280;9626;52.552;13.436;2023-07-13T00:12:49;100659.53;;;20.51;80.08
18985;BME280;9626;52.552;13.436;2023-07-13T00:15:18;100658.66;;;20.65;78.46
18985;BME280;9626;52.552;13.436;2023-07-13T00:17:49;100660.03;;;20.72;78.95
18985;BME280;9626;52.552;13.436;2023-07-13T00:20:16;100658.94;;;20.60;79.01
18985;BME280;9626;52.552;13.436;2023-07-13T00:22:42;100665.56;;;20.40;79.61
18985;BME280;9626;52.552;13.436;2023-07-13T00:25:11;100664.88;;;20.36;80.05
18985;BME280;9626;52.552;13.436;2023-07-13T00:27:37;100658.25;;;20.42;80.11
18985;BME280;9626;52.552;13.436;2023-07-13T00:30:04;100661.09;;;20.24;80.53
18985;BME280;9626;52.552;13.436;2023-07-13T00:32:31;100665.69;;;20.08;82.11
18985;BME280;9626;52.552;13.436;2023-07-13T00:34:57;100671.44;;;20.02;83.62
18985;BME280;9626;52.552;13.436;2023-07-13T00:37:25;100669.50;;;20.04;83.83
18985;BME280;9626;52.552;13.436;2023-07-13T00:39:51;100669.69;;;20.01;83.85
18985;BME280;9626;52.552;13.436;2023-07-13T00:42:17;100660.63;;;19.87;84.45
18985;BME280;9626;52.552;13.436;2023-07-13T00:45:04;100654.91;;;19.77;86.67
18985;BME280;9626;52.552;13.436;2023-07-13T00:47:30;100665.56;;;19.79;85.78
18985;BME280;9626;52.552;13.436;2023-07-13T00:49:56;100663.69;;;19.81;85.22
18985;BME280;9626;52.552;13.436;2023-07-13T00:52:23;100669.19;;;19.78;85.07
18985;BME280;9626;52.552;13.436;2023-07-13T00:54:49;100665.94;;;19.73;85.69
18985;BME280;9626;52.552;13.436;2023-07-13T00:57:17;100662.66;;;19.68;86.15
18985;BME280;9626;52.552;13.436;2023-07-13T00:59:49;100653.78;;;19.66;87.02
18985;BME280;9626;52.552;13.436;2023-07-13T01:02:16;100654.69;;;19.66;86.52
18985;BME280;9626;52.552;13.436;2023-07-13T01:04:43;100653.13;;;19.62;87.04
18985;BME280;9626;52.552;13.436;2023-07-13T01:07:10;100666.81;;;19.57;87.76
18985;BME280;9626;52.552;13.436;2023-07-13T01:09:37;100661.44;;;19.57;88.42
18985;BME280;9626;52.552;13.436;2023-07-13T01:12:03;100663.38;;;19.55;88.23
18985;BME280;9626;52.552;13.436;2023-07-13T01:14:30;100664.41;;;19.53;87.99
18985;BME280;9626;52.552;13.436;2023-07-13T01:16:56;100672.88;;;19.45;88.61
18985;BME280;9626;52.552;13.436;2023-07-13T01:19:40;100663.38;;;19.39;89.57
18985;BME280;9626;52.552;13.436;2023-07-13T01:22:14;100670.56;;;19.39;90.73
18985;BME280;9626;52.552;13.436;2023-07-13T01:24:43;100672.31;;;19.86;87.15
18985;BME280;9626;52.552;13.436;2023-07-13T01:27:12;100678.31;;;19.91;87.54
18985;BME280;9626;52.552;13.436;2023-07-13T01:29:40;100677.63;;;19.72;87.37
18985;BME280;9626;52.552;13.436;2023-07-13T01:32:13;100677.91;;;19.51;89.95
18985;BME280;9626;52.552;13.436;2023-07-13T01:34:39;100670.38;;;19.42;90.37
18985;BME280;9626;52.552;13.436;2023-07-13T01:37:09;100675.50;;;19.31;91.77
18985;BME280;9626;52.552;13.436;2023-07-13T01:39:35;100665.97;;;19.41;92.84
18985;BME280;9626;52.552;13.436;2023-07-13T01:42:01;100669.16;;;19.32;92.40
18985;BME280;9626;52.552;13.436;2023-07-13T01:44:28;100664.06;;;19.27;93.99
18985;BME280;9626;52.552;13.436;2023-07-13T01:46:54;100664.16;;;19.25;93.68
18985;BME280;9626;52.552;13.436;2023-07-13T01:49:20;100668.16;;;19.18;94.55
18985;BME280;9626;52.552;13.436;2023-07-13T01:51:46;100666.41;;;19.17;94.65
18985;BME280;9626;52.552;13.436;2023-07-13T01:54:12;100662.00;;;19.16;94.75
18985;BME280;9626;52.552;13.436;2023-07-13T01:56:38;100658.53;;;19.14;96.14
18985;BME280;9626;52.552;13.436;2023-07-13T01:59:05;100656.34;;;19.53;93.33
18985;BME280;9626;52.552;13.436;2023-07-13T02:01:31;100659.28;;;19.80;90.47
18985;BME280;9626;52.552;13.436;2023-07-13T02:03:57;100663.81;;;19.94;88.44
18985;BME280;9626;52.552;13.436;2023-07-13T02:06:23;100659.78;;;19.71;89.05
18985;BME280;9626;52.552;13.436;2023-07-13T02:08:49;100671.56;;;19.52;91.25
18985;BME280;9626;52.552;13.436;2023-07-13T02:11:15;100664.59;;;19.34;93.14
18985;BME280;9626;52.552;13.436;2023-07-13T02:13:41;100673.44;;;19.20;94.78
18985;BME280;9626;52.552;13.436;2023-07-13T02:16:07;100670.66;;;19.21;96.41
18985;BME280;9626;52.552;13.436;2023-07-13T02:18:33;100673.25;;;19.39;93.98
18985;BME280;9626;52.552;13.436;2023-07-13T02:20:59;100658.50;;;19.30;96.57
18985;BME280;9626;52.552;13.436;2023-07-13T02:23:25;100669.72;;;19.22;95.81
18985;BME280;9626;52.552;13.436;2023-07-13T02:25:58;100669.09;;;19.17;95.93
18985;BME280;9626;52.552;13.436;2023-07-13T02:28:24;100658.88;;;19.08;97.19
18985;BME280;9626;52.552;13.436;2023-07-13T02:30:50;100650.88;;;19.38;95.26
18985;BME280;9626;52.552;13.436;2023-07-13T02:33:16;100648.63;;;19.63;92.63
18985;BME280;9626;52.552;13.436;2023-07-13T02:35:43;100649.63;;;19.76;90.96
18985;BME280;9626;52.552;13.436;2023-07-13T02:38:09;100651.53;;;19.90;89.87
18985;BME280;9626;52.552;13.436;2023-07-13T02:40:35;100647.91;;;19.91;89.62
18985;BME280;9626;52.552;13.436;2023-07-13T02:43:02;100645.59;;;19.69;93.82
18985;BME280;9626;52.552;13.436;2023-07-13T02:45:28;100653.84;;;19.50;94.19
18985;BME280;9626;52.552;13.436;2023-07-13T02:47:54;100655.41;;;19.38;96.35
18985;BME280;9626;52.552;13.436;2023-07-13T02:50:20;100657.47;;;19.33;98.49
18985;BME280;9626;52.552;13.436;2023-07-13T02:52:46;100665.28;;;19.21;96.96
18985;BME280;9626;52.552;13.436;2023-07-13T02:55:12;100663.22;;;19.27;95.93
18985;BME280;9626;52.552;13.436;2023-07-13T02:57:38;100675.81;;;19.08;97.96
18985;BME280;9626;52.552;13.436;2023-07-13T03:00:05;100676.25;;;19.01;98.89
18985;BME280;9626;52.552;13.436;2023-07-13T03:02:32;100671.84;;;19.00;99.13
18985;BME280;9626;52.552;13.436;2023-07-13T03:04:58;100678.97;;;19.33;97.28
18985;BME280;9626;52.552;13.436;2023-07-13T03:07:24;100686.41;;;19.43;94.84
18985;BME280;9626;52.552;13.436;2023-07-13T03:09:56;100697.50;;;19.21;97.17
18985;BME280;9626;52.552;13.436;2023-07-13T03:12:23;100688.81;;;19.16;98.99
18985;BME280;9626;52.552;13.436;2023-07-13T03:14:49;100688.81;;;19.16;99.38
18985;BME280;9626;52.552;13.436;2023-07-13T03:17:15;100693.06;;;19.20;98.80
18985;BME280;9626;52.552;13.436;2023-07-13T03:19:41;100701.47;;;19.30;98.24
18985;BME280;9626;52.552;13.436;2023-07-13T03:22:07;100703.97;;;19.17;100.00
18985;BME280;9626;52.552;13.436;2023-07-13T03:24:34;100696.44;;;19.08;100.00
18985;BME280;9626;52.552;13.436;2023-07-13T03:27:04;100701.28;;;19.33;98.66
18985;BME280;9626;52.552;13.436;2023-07-13T03:29:30;100703.53;;;19.41;96.20
18985;BME280;9626;52.552;13.436;2023-07-13T03:31:56;100708.03;;;19.24;96.38
18985;BME280;9626;52.552;13.436;2023-07-13T03:34:22;100711.94;;;19.19;96.17
18985;BME280;9626;52.552;13.436;2023-07-13T03:36:48;100712.84;;;19.02;98.50
18985;BME280;9626;52.552;13.436;2023-07-13T03:39:15;100712.09;;;18.82;100.00
18985;BME280;9626;52.552;13.436;2023-07-13T03:41:41;100722.78;;;18.66;100.00
18985;BME280;9626;52.552;13.436;2023-07-13T03:44:07;100714.03;;;18.63;100.00
18985;BME280;9626;52.552;13.436;2023-07-13T03:46:33;100723.34;;;18.55;100.00
18985;BME280;9626;52.552;13.436;2023-07-13T03:48:59;100714.69;;;18.50;100.00
18985;BME280;9626;52.552;13.436;2023-07-13T03:51:25;100723.50;;;18.52;100.00
18985;BME280;9626;52.552;13.436;2023-07-13T03:53:51;100722.09;;;18.45;100.00
18985;BME280;9626;52.552;13.436;2023-07-13T03:56:18;100726.53;;;18.46;100.00
18985;BME280;9626;52.552;13.436;2023-07-13T03:58:47;100725.25;;;18.36;100.00
18985;BME280;9626;52.552;13.436;2023-07-13T04:01:15;100720.91;;;18.33;100.00
18985;BME280;9626;52.552;13.436;2023-07-13T04:03:41;100721.81;;;18.34;100.00
18985;BME280;9626;52.552;13.436;2023-07-13T04:06:15;100725.59;;;18.30;100.00
18985;BME280;9626;52.552;13.436;2023-07-13T04:08:48;100727.75;;;18.21;100.00
18985;BME280;9626;52.552;13.436;2023-07-13T04:11:17;100732.34;;;18.19;100.00
18985;BME280;9626;52.552;13.436;2023-07-13T04:13:43;100731.25;;;18.23;100.00
18985;BME280;9626;52.552;13.436;2023-07-13T04:16:10;100732.81;;;18.28;100.00
18985;BME280;9626;52.552;13.436;2023-07-13T04:18:36;100738.19;;;18.28;100.00
18985;BME280;9626;52.552;13.436;2023-07-13T04:21:02;100729.03;;;18.32;100.00
18985;BME280;9626;52.552;13.436;2023-07-13T04:23:28;100730.88;;;18.31;100.00
18985;BME280;9626;52.552;13.436;2023-07-13T04:25:54;100734.41;;;18.32;100.00
18985;BME280;9626;52.552;13.436;2023-07-13T04:28:22;100737.25;;;18.29;100.00
18985;BME280;9626;52.552;13.436;2023-07-13T04:30:49;100733.22;;;18.37;100.00
18985;BME280;9626;52.552;13.436;2023-07-13T04:33:16;100731.34;;;18.39;100.00
18985;BME280;9626;52.552;13.436;2023-07-13T04:35:52;100741.88;;;18.42;100.00
18985;BME280;9626;52.552;13.436;2023-07-13T04:38:25;100739.47;;;18.38;100.00
18985;BME280;9626;52.552;13.436;2023-07-13T04:40:55;100742.44;;;18.32;100.00
18985;BME280;9626;52.552;13.436;2023-07-13T04:43:22;100742.69;;;18.27;100.00
18985;BME280;9626;52.552;13.436;2023-07-13T04:45:49;100748.91;;;18.28;100.00
18985;BME280;9626;52.552;13.436;2023-07-13T04:48:15;100755.19;;;18.27;100.00
18985;BME280;9626;52.552;13.436;2023-07-13T04:50:41;100757.59;;;18.33;100.00
18985;BME280;9626;52.552;13.436;2023-07-13T04:53:09;100758.22;;;18.38;100.00
18985;BME280;9626;52.552;13.436;2023-07-13T04:55:36;100757.25;;;18.39;100.00
18985;BME280;9626;52.552;13.436;2023-07-13T04:58:04;100759.78;;;18.42;100.00
18985;BME280;9626;52.552;13.436;2023-07-13T05:00:31;100759.00;;;18.40;100.00
18985;BME280;9626;52.552;13.436;2023-07-13T05:02:57;100757.88;;;18.44;100.00
18985;BME280;9626;52.552;13.436;2023-07-13T05:05:25;100749.69;;;18.47;100.00
18985;BME280;9626;52.552;13.436;2023-07-13T05:07:53;100765.28;;;18.56;100.00
18985;BME280;9626;52.552;13.436;2023-07-13T05:10:19;100770.34;;;18.63;100.00
18985;BME280;9626;52.552;13.436;2023-07-13T05:12:45;100768.28;;;18.68;100.00
18985;BME280;9626;52.552;13.436;2023-07-13T05:15:11;100770.19;;;18.66;100.00
18985;BME280;9626;52.552;13.436;2023-07-13T05:17:37;100781.38;;;18.56;100.00
18985;BME280;9626;52.552;13.436;2023-07-13T05:20:06;100779.63;;;18.55;100.00
18985;BME280;9626;52.552;13.436;2023-07-13T05:22:32;100774.13;;;18.58;100.00
18985;BME280;9626;52.552;13.436;2023-07-13T05:24:58;100773.97;;;18.62;100.00
18985;BME280;9626;52.552;13.436;2023-07-13T05:27:24;100777.19;;;18.68;100.00
18985;BME280;9626;52.552;13.436;2023-07-13T05:29:50;100781.47;;;18.72;100.00
18985;BME280;9626;52.552;13.436;2023-07-13T05:32:17;100784.59;;;18.81;100.00
18985;BME280;9626;52.552;13.436;2023-07-13T05:34:43;100782.41;;;18.89;100.00
18985;BME280;9626;52.552;13.436;2023-07-13T05:37:09;100790.28;;;18.92;100.00
18985;BME280;9626;52.552;13.436;2023-07-13T05:39:35;100791.78;;;18.98;100.00
18985;BME280;9626;52.552;13.436;2023-07-13T05:42:02;100788.88;;;19.02;100.00
18985;BME280;9626;52.552;13.436;2023-07-13T05:44:28;100794.41;;;18.99;100.00
18985;BME280;9626;52.552;13.436;2023-07-13T05:46:54;100789.72;;;19.03;100.00
18985;BME280;9626;52.552;13.436;2023-07-13T05:49:23;100783.59;;;19.01;100.00
18985;BME280;9626;52.552;13.436;2023-07-13T05:51:49;100793.03;;;19.08;100.00
18985;BME280;9626;52.552;13.436;2023-07-13T05:54:15;100795.22;;;19.17;100.00
18985;BME280;9626;52.552;13.436;2023-07-13T05:56:41;100799.13;;;19.28;100.00
18985;BME280;9626;52.552;13.436;2023-07-13T05:59:07;100782.53;;;19.37;100.00
18985;BME280;9626;52.552;13.436;2023-07-13T06:01:33;100789.72;;;19.52;100.00
18985;BME280;9626;52.552;13.436;2023-07-13T06:03:59;100792.69;;;19.64;100.00
18985;BME280;9626;52.552;13.436;2023-07-13T06:06:26;100791.06;;;19.77;99.67
18985;BME280;9626;52.552;13.436;2023-07-13T06:08:52;100795.38;;;19.80;98.85
18985;BME280;9626;52.552;13.436;2023-07-13T06:11:20;100794.19;;;19.85;98.90
18985;BME280;9626;52.552;13.436;2023-07-13T06:13:47;100789.41;;;19.90;97.78
18985;BME280;9626;52.552;13.436;2023-07-13T06:16:14;100794.16;;;20.01;96.86
18985;BME280;9626;52.552;13.436;2023-07-13T06:18:40;100790.00;;;19.96;95.91
18985;BME280;9626;52.552;13.436;2023-07-13T06:21:13;100791.75;;;19.97;95.33
18985;BME280;9626;52.552;13.436;2023-07-13T06:23:40;100787.50;;;19.92;95.02
18985;BME280;9626;52.552;13.436;2023-07-13T06:26:07;100777.19;;;20.01;95.20
18985;BME280;9626;52.552;13.436;2023-07-13T06:28:34;100770.69;;;20.05;94.86
18985;BME280;9626;52.552;13.436;2023-07-13T06:31:00;100774.38;;;20.18;96.50
18985;BME280;9626;52.552;13.436;2023-07-13T06:33:27;100781.63;;;20.32;91.60
18985;BME280;9626;52.552;13.436;2023-07-13T06:35:53;100789.25;;;20.40;91.17
18985;BME280;9626;52.552;13.436;2023-07-13T06:38:20;100775.53;;;20.44;90.07
18985;BME280;9626;52.552;13.436;2023-07-13T06:40:46;100782.44;;;20.49;87.57
18985;BME280;9626;52.552;13.436;2023-07-13T06:43:12;100777.97;;;20.49;88.62
18985;BME280;9626;52.552;13.436;2023-07-13T06:45:44;100787.56;;;20.53;88.45
18985;BME280;9626;52.552;13.436;2023-07-13T06:48:16;100785.19;;;20.63;88.89
18985;BME280;9626;52.552;13.436;2023-07-13T06:50:42;100783.78;;;20.72;86.34
18985;BME280;9626;52.552;13.436;2023-07-13T06:53:10;100790.16;;;20.85;87.17
18985;BME280;9626;52.552;13.436;2023-07-13T06:55:36;100792.88;;;21.00;87.42
18985;BME280;9626;52.552;13.436;2023-07-13T06:58:02;100788.63;;;21.10;85.74
18985;BME280;9626;52.552;13.436;2023-07-13T07:00:28;100783.72;;;21.17;84.96
18985;BME280;9626;52.552;13.436;2023-07-13T07:02:54;100785.06;;;21.24;82.87
18985;BME280;9626;52.552;13.436;2023-07-13T07:05:20;100781.72;;;21.20;82.82
18985;BME280;9626;52.552;13.436;2023-07-13T07:07:49;100777.78;;;21.26;82.92
18985;BME280;9626;52.552;13.436;2023-07-13T07:10:23;100784.00;;;21.26;78.92
18985;BME280;9626;52.552;13.436;2023-07-13T07:13:13;100780.25;;;21.29;78.66
18985;BME280;9626;52.552;13.436;2023-07-13T07:15:45;100780.00;;;21.34;76.44
18985;BME280;9626;52.552;13.436;2023-07-13T07:18:19;100777.09;;;21.37;76.58
18985;BME280;9626;52.552;13.436;2023-07-13T07:20:46;100775.34;;;21.50;76.75
18985;BME280;9626;52.552;13.436;2023-07-13T07:23:15;100784.31;;;21.65;76.48
18985;BME280;9626;52.552;13.436;2023-07-13T07:25:49;100784.16;;;21.81;74.40
18985;BME280;9626;52.552;13.436;2023-07-13T07:28:23;100793.59;;;21.74;71.81
18985;BME280;9626;52.552;13.436;2023-07-13T07:30:56;100789.50;;;21.68;70.36
18985;BME280;9626;52.552;13.436;2023-07-13T07:33:25;100795.94;;;21.66;68.17
18985;BME280;9626;52.552;13.436;2023-07-13T07:35:57;100800.34;;;21.52;68.49
18985;BME280;9626;52.552;13.436;2023-07-13T07:38:29;100796.69;;;21.39;71.04
18985;BME280;9626;52.552;13.436;2023-07-13T07:41:04;100799.03;;;21.45;71.29
18985;BME280;9626;52.552;13.436;2023-07-13T07:43:41;100795.16;;;21.64;69.78
18985;BME280;9626;52.552;13.436;2023-07-13T07:46:09;100796.63;;;21.69;69.23
18985;BME280;9626;52.552;13.436;2023-07-13T07:48:42;100797.72;;;21.80;68.84
18985;BME280;9626;52.552;13.436;2023-07-13T07:51:35;100796.88;;;21.79;70.03
18985;BME280;9626;52.552;13.436;2023-07-13T07:54:07;100798.31;;;21.85;67.75
18985;BME280;9626;52.552;13.436;2023-07-13T07:56:46;100804.00;;;21.80;64.99
18985;BME280;9626;52.552;13.436;2023-07-13T07:59:25;100805.06;;;21.77;65.38
18985;BME280;9626;52.552;13.436;2023-07-13T08:02:03;100802.28;;;21.79;64.77
18985;BME280;9626;52.552;13.436;2023-07-13T08:04:36;100810.78;;;21.58;65.01
18985;BME280;9626;52.552;13.436;2023-07-13T08:08:03;100806.56;;;21.54;66.70
18985;BME280;9626;52.552;13.436;2023-07-13T08:10:39;100811.78;;;21.70;67.52
18985;BME280;9626;52.552;13.436;2023-07-13T08:13:09;100806.69;;;21.80;66.62
18985;BME280;9626;52.552;13.436;2023-07-13T08:15:38;100805.47;;;21.99;65.90
18985;BME280;9626;52.552;13.436;2023-07-13T08:18:07;100814.88;;;22.06;64.63
18985;BME280;9626;52.552;13.436;2023-07-13T08:21:05;100806.41;;;22.12;66.54
18985;BME280;9626;52.552;13.436;2023-07-13T08:23:48;100812.00;;;22.09;64.86
18985;BME280;9626;52.552;13.436;2023-07-13T08:26:40;100811.13;;;22.08;63.91
18985;BME280;9626;52.552;13.436;2023-07-13T08:29:09;100811.69;;;22.14;64.38
18985;BME280;9626;52.552;13.436;2023-07-13T08:31:40;100817.53;;;22.20;64.59
18985;BME280;9626;52.552;13.436;2023-07-13T08:34:20;100819.28;;;22.21;64.72
18985;BME280;9626;52.552;13.436;2023-07-13T08:36:54;100814.72;;;22.22;64.54
18985;BME280;9626;52.552;13.436;2023-07-13T08:46:02;100823.28;;;22.01;63.92
18985;BME280;9626;52.552;13.436;2023-07-13T08:48:52;100824.44;;;21.97;63.24
18985;BME280;9626;52.552;13.436;2023-07-13T08:51:39;100829.25;;;21.92;62.53
18985;BME280;9626;52.552;13.436;2023-07-13T08:57:27;100828.41;;;21.91;64.11
18985;BME280;9626;52.552;13.436;2023-07-13T09:00:04;100827.81;;;22.01;61.47
18985;BME280;9626;52.552;13.436;2023-07-13T09:02:43;100826.16;;;22.40;60.93
18985;BME280;9626;52.552;13.436;2023-07-13T09:05:40;100835.63;;;22.86;58.65
18985;BME280;9626;52.552;13.436;2023-07-13T09:16:35;100838.50;;;23.36;52.59
18985;BME280;9626;52.552;13.436;2023-07-13T09:19:14;100846.22;;;22.89;53.95
18985;BME280;9626;52.552;13.436;2023-07-13T09:21:47;100838.22;;;22.87;55.32
18985;BME280;9626;52.552;13.436;2023-07-13T09:24:51;100841.94;;;23.51;53.34
18985;BME280;9626;52.552;13.436;2023-07-13T09:27:35;100845.28;;;23.54;49.27
18985;BME280;9626;52.552;13.436;2023-07-13T09:32:54;100837.41;;;23.38;45.86
18985;BME280;9626;52.552;13.436;2023-07-13T09:35:28;100840.63;;;23.43;47.37
18985;BME280;9626;52.552;13.436;2023-07-13T09:38:30;100841.06;;;23.24;48.88
18985;BME280;9626;52.552;13.436;2023-07-13T09:41:23;100833.56;;;23.67;49.02
18985;BME280;9626;52.552;13.436;2023-07-13T09:44:11;100839.91;;;23.91;46.44
18985;BME280;9626;52.552;13.436;2023-07-13T09:46:53;100835.19;;;23.82;47.72
18985;BME280;9626;52.552;13.436;2023-07-13T09:49:26;100838.03;;;24.05;47.45
18985;BME280;9626;52.552;13.436;2023-07-13T09:52:17;100834.38;;;24.06;47.98
18985;BME280;9626;52.552;13.436;2023-07-13T09:55:26;100839.25;;;24.01;47.62
18985;BME280;9626;52.552;13.436;2023-07-13T09:58:25;100841.94;;;23.51;46.83
18985;BME280;9626;52.552;13.436;2023-07-13T10:01:16;100843.75;;;23.63;46.75
18985;BME280;9626;52.552;13.436;2023-07-13T10:04:35;100853.03;;;23.72;46.94
18985;BME280;9626;52.552;13.436;2023-07-13T10:07:23;100829.78;;;23.69;47.98
18985;BME280;9626;52.552;13.436;2023-07-13T10:10:23;100839.06;;;23.78;47.49
18985;BME280;9626;52.552;13.436;2023-07-13T10:13:27;100848.81;;;23.68;47.39
18985;BME280;9626;52.552;13.436;2023-07-13T10:16:13;100832.97;;;23.50;47.90
18985;BME280;9626;52.552;13.436;2023-07-13T10:19:26;100825.50;;;23.41;48.74
18985;BME280;9626;52.552;13.436;2023-07-13T10:22:33;100831.72;;;23.80;48.81
18985;BME280;9626;52.552;13.436;2023-07-13T10:25:42;100829.59;;;23.59;48.29
18985;BME280;9626;52.552;13.436;2023-07-13T10:28:34;100833.66;;;23.78;48.81
18985;BME280;9626;52.552;13.436;2023-07-13T10:31:34;100831.28;;;23.86;48.83
18985;BME280;9626;52.552;13.436;2023-07-13T10:34:19;100829.53;;;23.85;47.17
18985;BME280;9626;52.552;13.436;2023-07-13T10:40:26;100837.00;;;23.82;46.67
18985;BME280;9626;52.552;13.436;2023-07-13T10:43:37;100837.56;;;23.74;46.04
18985;BME280;9626;52.552;13.436;2023-07-13T10:46:30;100833.22;;;23.84;47.92
18985;BME280;9626;52.552;13.436;2023-07-13T10:49:24;100844.06;;;23.71;47.97
18985;BME280;9626;52.552;13.436;2023-07-13T10:56:30;100840.94;;;23.65;47.68
18985;BME280;9626;52.552;13.436;2023-07-13T10:59:34;100833.50;;;23.55;48.11
18985;BME280;9626;52.552;13.436;2023-07-13T11:02:26;100820.94;;;23.67;48.47
18985;BME280;9626;52.552;13.436;2023-07-13T11:05:32;100827.25;;;23.55;48.86
18985;BME280;9626;52.552;13.436;2023-07-13T11:08:35;100829.72;;;23.45;47.89
18985;BME280;9626;52.552;13.436;2023-07-13T11:11:41;100836.75;;;23.60;48.36
18985;BME280;9626;52.552;13.436;2023-07-13T11:17:56;100830.44;;;23.73;46.82
18985;BME280;9626;52.552;13.436;2023-07-13T11:20:51;100824.00;;;23.87;47.18
18985;BME280;9626;52.552;13.436;2023-07-13T11:27:39;100829.06;;;24.04;44.96
18985;BME280;9626;52.552;13.436;2023-07-13T11:36:17;100834.66;;;24.14;45.42
18985;BME280;9626;52.552;13.436;2023-07-13T11:39:34;100819.00;;;24.30;44.84
18985;BME280;9626;52.552;13.436;2023-07-13T11:42:22;100828.91;;;24.19;44.37
18985;BME280;9626;52.552;13.436;2023-07-13T11:45:22;100825.91;;;24.35;43.29
18985;BME280;9626;52.552;13.436;2023-07-13T11:48:28;100816.34;;;24.42;42.27
18985;BME280;9626;52.552;13.436;2023-07-13T11:51:28;100830.75;;;24.67;41.15
18985;BME280;9626;52.552;13.436;2023-07-13T11:54:30;100828.91;;;24.78;40.74
18985;BME280;9626;52.552;13.436;2023-07-13T11:57:24;100809.31;;;24.63;40.31
18985;BME280;9626;52.552;13.436;2023-07-13T12:00:29;100815.25;;;24.80;40.92
18985;BME280;9626;52.552;13.436;2023-07-13T12:06:30;100831.41;;;24.57;41.43
18985;BME280;9626;52.552;13.436;2023-07-13T12:09:28;100818.59;;;24.24;42.54
18985;BME280;9626;52.552;13.436;2023-07-13T12:12:32;100834.94;;;24.71;41.30
18985;BME280;9626;52.552;13.436;2023-07-13T12:15:17;100832.72;;;24.76;39.51
18985;BME280;9626;52.552;13.436;2023-07-13T12:21:26;100822.38;;;24.70;40.38
18985;BME280;9626;52.552;13.436;2023-07-13T12:27:39;100838.03;;;24.77;41.79
18985;BME280;9626;52.552;13.436;2023-07-13T12:30:32;100833.22;;;24.57;42.20
18985;BME280;9626;52.552;13.436;2023-07-13T12:33:27;100816.91;;;24.58;42.71
18985;BME280;9626;52.552;13.436;2023-07-13T12:36:17;100814.50;;;24.67;42.44
18985;BME280;9626;52.552;13.436;2023-07-13T12:39:47;100819.69;;;24.81;41.20
18985;BME280;9626;52.552;13.436;2023-07-13T12:42:42;100829.09;;;24.88;41.08
18985;BME280;9626;52.552;13.436;2023-07-13T12:45:33;100826.84;;;24.93;40.39
18985;BME280;9626;52.552;13.436;2023-07-13T12:48:37;100822.44;;;25.04;40.11
18985;BME280;9626;52.552;13.436;2023-07-13T12:51:30;100821.22;;;25.19;39.16
18985;BME280;9626;52.552;13.436;2023-07-13T12:54:39;100829.59;;;25.16;39.12
18985;BME280;9626;52.552;13.436;2023-07-13T12:57:30;100818.72;;;24.93;39.78
18985;BME280;9626;52.552;13.436;2023-07-13T13:00:35;100812.06;;;24.86;38.88
18985;BME280;9626;52.552;13.436;2023-07-13T13:03:30;100833.22;;;24.81;38.37
18985;BME280;9626;52.552;13.436;2023-07-13T13:06:41;100827.78;;;24.70;38.36
18985;BME280;9626;52.552;13.436;2023-07-13T13:09:49;100825.75;;;24.60;39.09
18985;BME280;9626;52.552;13.436;2023-07-13T13:12:45;100823.63;;;24.53;39.71
18985;BME280;9626;52.552;13.436;2023-07-13T13:15:30;100820.59;;;24.57;40.71
18985;BME280;9626;52.552;13.436;2023-07-13T13:18:18;100832.63;;;24.77;39.85
18985;BME280;9626;52.552;13.436;2023-07-13T13:21:06;100820.66;;;24.69;40.09
18985;BME280;9626;52.552;13.436;2023-07-13T13:27:20;100816.72;;;24.84;40.18
18985;BME280;9626;52.552;13.436;2023-07-13T13:33:11;100811.38;;;25.07;39.63
18985;BME280;9626;52.552;13.436;2023-07-13T13:35:59;100825.41;;;25.23;39.53
18985;BME280;9626;52.552;13.436;2023-07-13T13:38:55;100818.00;;;25.14;40.24
18985;BME280;9626;52.552;13.436;2023-07-13T13:41:45;100817.16;;;25.02;39.22
18985;BME280;9626;52.552;13.436;2023-07-13T13:44:33;100839.94;;;25.11;39.70
18985;BME280;9626;52.552;13.436;2023-07-13T13:50:22;100821.47;;;25.05;39.99
18985;BME280;9626;52.552;13.436;2023-07-13T13:53:12;100823.22;;;25.17;41.02
18985;BME280;9626;52.552;13.436;2023-07-13T13:56:05;100825.91;;;25.28;39.15
18985;BME280;9626;52.552;13.436;2023-07-13T13:58:54;100813.00;;;25.32;40.08
18985;BME280;9626;52.552;13.436;2023-07-13T14:01:47;100815.31;;;25.03;40.67
18985;BME280;9626;52.552;13.436;2023-07-13T14:04:42;100813.22;;;25.18;40.70
18985;BME280;9626;52.552;13.436;2023-07-13T14:07:41;100826.19;;;25.25;40.43
18985;BME280;9626;52.552;13.436;2023-07-13T14:10:26;100815.94;;;25.06;40.46
18985;BME280;9626;52.552;13.436;2023-07-13T14:13:30;100816.44;;;25.45;40.44
18985;BME280;9626;52.552;13.436;2023-07-13T14:16:35;100819.53;;;25.52;39.86
18985;BME280;9626;52.552;13.436;2023-07-13T14:19:28;100828.41;;;25.54;39.28
18985;BME280;9626;52.552;13.436;2023-07-13T14:22:15;100827.66;;;25.52;39.58
18985;BME280;9626;52.552;13.436;2023-07-13T14:25:12;100835.34;;;25.47;39.73
18985;BME280;9626;52.552;13.436;2023-07-13T14:27:58;100830.38;;;25.52;40.04
18985;BME280;9626;52.552;13.436;2023-07-13T14:30:53;100841.00;;;25.55;40.00
18985;BME280;9626;52.552;13.436;2023-07-13T14:33:43;100836.28;;;25.69;39.98
18985;BME280;9626;52.552;13.436;2023-07-13T14:36:45;100840.22;;;25.76;39.52
18985;BME280;9626;52.552;13.436;2023-07-13T14:39:40;100833.94;;;25.64;40.05